sensor_id;sensor_type;location;lat;lon;timestamp;P1;durP1;ratioP1;P2;durP2;ratioP2
46815;SDS011;32787;53.316;8.670;2024-02-15T00:02:14;458.92;;;219.57;;
46815;SDS011;32787;53.316;8.670;2024-02-15T00:04:40;461.15;;;222.88;;
46815;SDS011;32787;53.316;8.670;2024-02-15T00:07:07;462.23;;;229.00;;
46815;SDS011;32787;53.316;8.670;2024-02-15T00:09:33;463.40;;;228.10;;
46815;SDS011;32787;53.316;8.670;2024-02-15T00:11:59;463.50;;;229.35;;
46815;SDS011;32787;53.316;8.670;2024-02-15T00:14:25;458.88;;;229.18;;
46815;SDS011;32787;53.316;8.670;2024-02-15T00:16:53;461.63;;;227.85;;
46815;SDS011;32787;53.316;8.670;2024-02-15T00:19:18;461.38;;;232.70;;
46815;SDS011;32787;53.316;8.670;2024-02-15T00:21:44;463.27;;;233.07;;
46815;SDS011;32787;53.316;8.670;2024-02-15T00:24:10;462.90;;;228.60;;
46815;SDS011;32787;53.316;8.670;2024-02-15T00:26:36;458.83;;;227.57;;
46815;SDS011;32787;53.316;8.670;2024-02-15T00:29:02;457.38;;;227.88;;
46815;SDS011;32787;53.316;8.670;2024-02-15T00:31:27;456.98;;;228.02;;
46815;SDS011;32787;53.316;8.670;2024-02-15T00:33:53;463.00;;;232.70;;
46815;SDS011;32787;53.316;8.670;2024-02-15T00:36:20;460.20;;;229.57;;
46815;SDS011;32787;53.316;8.670;2024-02-15T00:38:45;463.55;;;228.40;;
46815;SDS011;32787;53.316;8.670;2024-02-15T00:41:11;460.30;;;229.27;;
46815;SDS011;32787;53.316;8.670;2024-02-15T00:43:37;458.50;;;227.70;;
46815;SDS011;32787;53.316;8.670;2024-02-15T00:46:03;464.77;;;230.07;;
46815;SDS011;32787;53.316;8.670;2024-02-15T00:48:29;460.50;;;227.25;;
46815;SDS011;32787;53.316;8.670;2024-02-15T00:50:55;464.77;;;226.95;;
46815;SDS011;32787;53.316;8.670;2024-02-15T00:53:21;467.83;;;228.55;;
46815;SDS011;32787;53.316;8.670;2024-02-15T00:55:47;465.45;;;227.57;;
46815;SDS011;32787;53.316;8.670;2024-02-15T00:58:13;461.38;;;217.68;;
46815;SDS011;32787;53.316;8.670;2024-02-15T01:00:38;465.05;;;226.60;;
46815;SDS011;32787;53.316;8.670;2024-02-15T01:03:04;466.70;;;225.05;;
46815;SDS011;32787;53.316;8.670;2024-02-15T01:05:29;466.92;;;226.68;;
46815;SDS011;32787;53.316;8.670;2024-02-15T01:07:55;467.73;;;224.60;;
46815;SDS011;32787;53.316;8.670;2024-02-15T01:10:22;467.38;;;227.70;;
46815;SDS011;32787;53.316;8.670;2024-02-15T01:12:49;472.17;;;225.35;;
46815;SDS011;32787;53.316;8.670;2024-02-15T01:15:15;466.80;;;226.98;;
46815;SDS011;32787;53.316;8.670;2024-02-15T01:17:43;467.23;;;223.43;;
46815;SDS011;32787;53.316;8.670;2024-02-15T01:20:09;465.08;;;213.98;;
46815;SDS011;32787;53.316;8.670;2024-02-15T01:22:35;466.38;;;218.93;;
46815;SDS011;32787;53.316;8.670;2024-02-15T01:25:01;462.25;;;215.20;;
46815;SDS011;32787;53.316;8.670;2024-02-15T01:27:27;467.73;;;214.18;;
46815;SDS011;32787;53.316;8.670;2024-02-15T01:29:56;465.92;;;216.85;;
46815;SDS011;32787;53.316;8.670;2024-02-15T01:32:22;469.13;;;219.57;;
46815;SDS011;32787;53.316;8.670;2024-02-15T01:34:48;467.67;;;220.25;;
46815;SDS011;32787;53.316;8.670;2024-02-15T01:37:16;467.35;;;221.00;;
46815;SDS011;32787;53.316;8.670;2024-02-15T01:39:42;470.85;;;222.02;;
46815;SDS011;32787;53.316;8.670;2024-02-15T01:42:07;469.27;;;220.50;;
46815;SDS011;32787;53.316;8.670;2024-02-15T01:44:33;463.55;;;219.40;;
46815;SDS011;32787;53.316;8.670;2024-02-15T01:47:01;464.27;;;215.90;;
46815;SDS011;32787;53.316;8.670;2024-02-15T01:49:29;465.50;;;216.90;;
46815;SDS011;32787;53.316;8.670;2024-02-15T01:51:55;468.08;;;219.23;;
46815;SDS011;32787;53.316;8.670;2024-02-15T01:54:22;469.23;;;222.52;;
46815;SDS011;32787;53.316;8.670;2024-02-15T01:56:49;468.77;;;224.40;;
46815;SDS011;32787;53.316;8.670;2024-02-15T01:59:15;466.83;;;224.85;;
46815;SDS011;32787;53.316;8.670;2024-02-15T02:01:41;466.23;;;222.18;;
46815;SDS011;32787;53.316;8.670;2024-02-15T02:04:07;472.05;;;226.55;;
46815;SDS011;32787;53.316;8.670;2024-02-15T02:06:34;465.88;;;224.73;;
46815;SDS011;32787;53.316;8.670;2024-02-15T02:08:59;470.85;;;230.38;;
46815;SDS011;32787;53.316;8.670;2024-02-15T02:11:27;468.15;;;226.70;;
46815;SDS011;32787;53.316;8.670;2024-02-15T02:13:54;462.77;;;225.65;;
46815;SDS011;32787;53.316;8.670;2024-02-15T02:16:24;470.73;;;233.70;;
46815;SDS011;32787;53.316;8.670;2024-02-15T02:18:51;470.00;;;228.35;;
46815;SDS011;32787;53.316;8.670;2024-02-15T02:21:17;466.85;;;227.68;;
46815;SDS011;32787;53.316;8.670;2024-02-15T02:23:42;468.75;;;230.85;;
46815;SDS011;32787;53.316;8.670;2024-02-15T02:26:14;470.95;;;232.27;;
46815;SDS011;32787;53.316;8.670;2024-02-15T02:28:41;466.00;;;227.45;;
46815;SDS011;32787;53.316;8.670;2024-02-15T02:31:07;465.75;;;227.18;;
46815;SDS011;32787;53.316;8.670;2024-02-15T02:33:36;468.60;;;227.10;;
46815;SDS011;32787;53.316;8.670;2024-02-15T02:36:01;469.98;;;229.50;;
46815;SDS011;32787;53.316;8.670;2024-02-15T02:38:27;470.73;;;233.20;;
46815;SDS011;32787;53.316;8.670;2024-02-15T02:40:53;469.10;;;236.10;;
46815;SDS011;32787;53.316;8.670;2024-02-15T02:43:18;475.15;;;234.13;;
46815;SDS011;32787;53.316;8.670;2024-02-15T02:45:44;471.30;;;226.07;;
46815;SDS011;32787;53.316;8.670;2024-02-15T02:48:12;471.85;;;233.52;;
46815;SDS011;32787;53.316;8.670;2024-02-15T02:50:38;475.02;;;229.90;;
46815;SDS011;32787;53.316;8.670;2024-02-15T02:53:04;472.38;;;222.73;;
46815;SDS011;32787;53.316;8.670;2024-02-15T02:55:30;470.40;;;223.63;;
46815;SDS011;32787;53.316;8.670;2024-02-15T02:57:55;468.67;;;227.60;;
46815;SDS011;32787;53.316;8.670;2024-02-15T03:00:21;474.38;;;225.93;;
46815;SDS011;32787;53.316;8.670;2024-02-15T03:02:47;474.83;;;232.82;;
46815;SDS011;32787;53.316;8.670;2024-02-15T03:05:13;477.13;;;223.98;;
46815;SDS011;32787;53.316;8.670;2024-02-15T03:07:39;472.83;;;221.73;;
46815;SDS011;32787;53.316;8.670;2024-02-15T03:10:05;465.55;;;218.35;;
46815;SDS011;32787;53.316;8.670;2024-02-15T03:12:37;474.27;;;222.60;;
46815;SDS011;32787;53.316;8.670;2024-02-15T03:15:06;473.42;;;228.63;;
46815;SDS011;32787;53.316;8.670;2024-02-15T03:17:42;473.13;;;231.65;;
46815;SDS011;32787;53.316;8.670;2024-02-15T03:20:10;473.15;;;232.85;;
46815;SDS011;32787;53.316;8.670;2024-02-15T03:22:45;477.20;;;225.38;;
46815;SDS011;32787;53.316;8.670;2024-02-15T03:25:21;469.83;;;224.90;;
46815;SDS011;32787;53.316;8.670;2024-02-15T03:27:53;470.73;;;225.52;;
46815;SDS011;32787;53.316;8.670;2024-02-15T03:30:24;470.85;;;221.57;;
46815;SDS011;32787;53.316;8.670;2024-02-15T03:32:56;470.92;;;220.55;;
46815;SDS011;32787;53.316;8.670;2024-02-15T03:35:22;482.08;;;223.73;;
46815;SDS011;32787;53.316;8.670;2024-02-15T03:37:49;471.98;;;220.60;;
46815;SDS011;32787;53.316;8.670;2024-02-15T03:40:21;472.35;;;220.43;;
46815;SDS011;32787;53.316;8.670;2024-02-15T03:42:48;477.65;;;215.07;;
46815;SDS011;32787;53.316;8.670;2024-02-15T03:45:15;474.20;;;221.90;;
46815;SDS011;32787;53.316;8.670;2024-02-15T03:47:41;467.23;;;210.70;;
46815;SDS011;32787;53.316;8.670;2024-02-15T03:50:07;475.08;;;225.90;;
46815;SDS011;32787;53.316;8.670;2024-02-15T03:52:37;470.73;;;224.52;;
46815;SDS011;32787;53.316;8.670;2024-02-15T03:55:03;475.17;;;225.30;;
46815;SDS011;32787;53.316;8.670;2024-02-15T03:57:30;465.23;;;216.80;;
46815;SDS011;32787;53.316;8.670;2024-02-15T03:59:56;464.52;;;215.73;;
46815;SDS011;32787;53.316;8.670;2024-02-15T04:02:25;467.13;;;218.10;;
46815;SDS011;32787;53.316;8.670;2024-02-15T04:04:55;465.50;;;226.05;;
46815;SDS011;32787;53.316;8.670;2024-02-15T04:07:22;462.95;;;218.30;;
46815;SDS011;32787;53.316;8.670;2024-02-15T04:09:48;460.95;;;207.52;;
46815;SDS011;32787;53.316;8.670;2024-02-15T04:12:14;470.13;;;222.10;;
46815;SDS011;32787;53.316;8.670;2024-02-15T04:14:40;463.35;;;214.30;;
46815;SDS011;32787;53.316;8.670;2024-02-15T04:17:06;462.33;;;218.02;;
46815;SDS011;32787;53.316;8.670;2024-02-15T04:19:32;461.70;;;216.05;;
46815;SDS011;32787;53.316;8.670;2024-02-15T04:21:58;460.95;;;215.73;;
46815;SDS011;32787;53.316;8.670;2024-02-15T04:24:25;471.23;;;219.23;;
46815;SDS011;32787;53.316;8.670;2024-02-15T04:26:51;456.27;;;214.32;;
46815;SDS011;32787;53.316;8.670;2024-02-15T04:29:17;463.35;;;222.20;;
46815;SDS011;32787;53.316;8.670;2024-02-15T04:31:45;462.17;;;214.13;;
46815;SDS011;32787;53.316;8.670;2024-02-15T04:34:14;462.10;;;215.07;;
46815;SDS011;32787;53.316;8.670;2024-02-15T04:36:40;461.40;;;210.60;;
46815;SDS011;32787;53.316;8.670;2024-02-15T04:39:07;456.15;;;211.73;;
46815;SDS011;32787;53.316;8.670;2024-02-15T04:41:35;458.35;;;212.90;;
46815;SDS011;32787;53.316;8.670;2024-02-15T04:44:04;457.00;;;210.00;;
46815;SDS011;32787;53.316;8.670;2024-02-15T04:46:30;457.38;;;213.20;;
46815;SDS011;32787;53.316;8.670;2024-02-15T04:48:56;465.17;;;215.85;;
46815;SDS011;32787;53.316;8.670;2024-02-15T04:51:25;459.55;;;211.02;;
46815;SDS011;32787;53.316;8.670;2024-02-15T04:53:52;462.63;;;215.20;;
46815;SDS011;32787;53.316;8.670;2024-02-15T04:56:18;460.83;;;217.20;;
46815;SDS011;32787;53.316;8.670;2024-02-15T04:58:46;459.52;;;216.13;;
46815;SDS011;32787;53.316;8.670;2024-02-15T05:01:15;463.38;;;221.38;;
46815;SDS011;32787;53.316;8.670;2024-02-15T05:03:44;456.73;;;218.70;;
46815;SDS011;32787;53.316;8.670;2024-02-15T05:06:10;457.33;;;215.68;;
46815;SDS011;32787;53.316;8.670;2024-02-15T05:08:40;457.95;;;210.93;;
46815;SDS011;32787;53.316;8.670;2024-02-15T05:11:09;453.70;;;212.25;;
46815;SDS011;32787;53.316;8.670;2024-02-15T05:13:45;455.48;;;215.70;;
46815;SDS011;32787;53.316;8.670;2024-02-15T05:16:11;455.20;;;212.13;;
46815;SDS011;32787;53.316;8.670;2024-02-15T05:18:37;460.55;;;219.98;;
46815;SDS011;32787;53.316;8.670;2024-02-15T05:21:05;458.00;;;214.63;;
46815;SDS011;32787;53.316;8.670;2024-02-15T05:23:34;460.35;;;222.13;;
46815;SDS011;32787;53.316;8.670;2024-02-15T05:26:05;451.52;;;218.18;;
46815;SDS011;32787;53.316;8.670;2024-02-15T05:28:31;457.08;;;217.10;;
46815;SDS011;32787;53.316;8.670;2024-02-15T05:31:13;455.73;;;214.77;;
46815;SDS011;32787;53.316;8.670;2024-02-15T05:33:43;453.63;;;213.55;;
46815;SDS011;32787;53.316;8.670;2024-02-15T05:36:15;454.90;;;217.18;;
46815;SDS011;32787;53.316;8.670;2024-02-15T05:38:46;456.25;;;217.77;;
46815;SDS011;32787;53.316;8.670;2024-02-15T05:41:12;457.33;;;216.32;;
46815;SDS011;32787;53.316;8.670;2024-02-15T05:43:41;456.52;;;216.45;;
46815;SDS011;32787;53.316;8.670;2024-02-15T05:46:07;460.90;;;218.83;;
46815;SDS011;32787;53.316;8.670;2024-02-15T05:48:34;454.27;;;220.18;;
46815;SDS011;32787;53.316;8.670;2024-02-15T05:51:02;457.75;;;218.00;;
46815;SDS011;32787;53.316;8.670;2024-02-15T05:53:28;456.30;;;215.15;;
46815;SDS011;32787;53.316;8.670;2024-02-15T05:55:54;458.45;;;219.52;;
46815;SDS011;32787;53.316;8.670;2024-02-15T05:58:23;457.88;;;218.40;;
46815;SDS011;32787;53.316;8.670;2024-02-15T06:00:49;451.67;;;217.18;;
46815;SDS011;32787;53.316;8.670;2024-02-15T06:03:17;454.02;;;220.43;;
46815;SDS011;32787;53.316;8.670;2024-02-15T06:05:43;459.60;;;224.60;;
46815;SDS011;32787;53.316;8.670;2024-02-15T06:08:09;461.40;;;224.10;;
46815;SDS011;32787;53.316;8.670;2024-02-15T06:10:37;459.42;;;216.95;;
46815;SDS011;32787;53.316;8.670;2024-02-15T06:13:03;460.17;;;224.45;;
46815;SDS011;32787;53.316;8.670;2024-02-15T06:15:29;461.02;;;225.55;;
46815;SDS011;32787;53.316;8.670;2024-02-15T06:17:54;459.25;;;230.10;;
46815;SDS011;32787;53.316;8.670;2024-02-15T06:20:20;457.58;;;228.00;;
46815;SDS011;32787;53.316;8.670;2024-02-15T06:22:47;457.70;;;228.50;;
46815;SDS011;32787;53.316;8.670;2024-02-15T06:25:13;460.67;;;226.00;;
46815;SDS011;32787;53.316;8.670;2024-02-15T06:27:40;465.85;;;229.23;;
46815;SDS011;32787;53.316;8.670;2024-02-15T06:30:10;460.92;;;228.82;;
46815;SDS011;32787;53.316;8.670;2024-02-15T06:32:56;460.00;;;225.70;;
46815;SDS011;32787;53.316;8.670;2024-02-15T06:35:41;459.27;;;228.43;;
46815;SDS011;32787;53.316;8.670;2024-02-15T06:38:25;458.73;;;224.68;;
46815;SDS011;32787;53.316;8.670;2024-02-15T06:41:10;455.73;;;225.60;;
46815;SDS011;32787;53.316;8.670;2024-02-15T06:43:35;458.23;;;226.60;;
46815;SDS011;32787;53.316;8.670;2024-02-15T06:46:02;456.40;;;221.07;;
46815;SDS011;32787;53.316;8.670;2024-02-15T06:48:31;459.67;;;227.13;;
46815;SDS011;32787;53.316;8.670;2024-02-15T06:50:56;463.55;;;223.85;;
46815;SDS011;32787;53.316;8.670;2024-02-15T06:53:23;456.77;;;217.48;;
46815;SDS011;32787;53.316;8.670;2024-02-15T06:55:49;458.25;;;224.38;;
46815;SDS011;32787;53.316;8.670;2024-02-15T06:58:18;454.60;;;222.70;;
46815;SDS011;32787;53.316;8.670;2024-02-15T07:00:45;454.90;;;224.25;;
46815;SDS011;32787;53.316;8.670;2024-02-15T07:03:11;460.27;;;225.20;;
46815;SDS011;32787;53.316;8.670;2024-02-15T07:05:36;462.27;;;229.85;;
46815;SDS011;32787;53.316;8.670;2024-02-15T07:08:09;456.85;;;225.25;;
46815;SDS011;32787;53.316;8.670;2024-02-15T07:10:40;455.17;;;228.63;;
46815;SDS011;32787;53.316;8.670;2024-02-15T07:13:06;463.75;;;230.05;;
46815;SDS011;32787;53.316;8.670;2024-02-15T07:15:33;463.88;;;232.30;;
46815;SDS011;32787;53.316;8.670;2024-02-15T07:18:03;462.92;;;232.15;;
46815;SDS011;32787;53.316;8.670;2024-02-15T07:20:31;462.77;;;232.02;;
46815;SDS011;32787;53.316;8.670;2024-02-15T07:22:59;469.00;;;236.77;;
46815;SDS011;32787;53.316;8.670;2024-02-15T07:25:25;470.38;;;237.10;;
46815;SDS011;32787;53.316;8.670;2024-02-15T07:27:51;467.95;;;236.77;;
46815;SDS011;32787;53.316;8.670;2024-02-15T07:30:17;470.58;;;237.57;;
46815;SDS011;32787;53.316;8.670;2024-02-15T07:32:43;479.70;;;241.95;;
46815;SDS011;32787;53.316;8.670;2024-02-15T07:35:09;472.58;;;244.95;;
46815;SDS011;32787;53.316;8.670;2024-02-15T07:37:35;476.23;;;247.88;;
46815;SDS011;32787;53.316;8.670;2024-02-15T07:40:01;472.27;;;244.80;;
46815;SDS011;32787;53.316;8.670;2024-02-15T07:42:29;470.13;;;247.13;;
46815;SDS011;32787;53.316;8.670;2024-02-15T07:44:55;480.33;;;250.48;;
46815;SDS011;32787;53.316;8.670;2024-02-15T07:47:20;477.30;;;249.68;;
46815;SDS011;32787;53.316;8.670;2024-02-15T07:49:49;474.17;;;247.48;;
46815;SDS011;32787;53.316;8.670;2024-02-15T07:52:15;471.33;;;247.13;;
46815;SDS011;32787;53.316;8.670;2024-02-15T07:54:42;480.35;;;251.18;;
46815;SDS011;32787;53.316;8.670;2024-02-15T07:57:07;473.90;;;249.55;;
46815;SDS011;32787;53.316;8.670;2024-02-15T07:59:34;474.48;;;252.57;;
46815;SDS011;32787;53.316;8.670;2024-02-15T08:02:00;477.00;;;253.32;;
46815;SDS011;32787;53.316;8.670;2024-02-15T08:04:26;472.40;;;247.80;;
46815;SDS011;32787;53.316;8.670;2024-02-15T08:06:53;474.63;;;251.25;;
46815;SDS011;32787;53.316;8.670;2024-02-15T08:09:20;480.33;;;254.07;;
46815;SDS011;32787;53.316;8.670;2024-02-15T08:11:49;473.30;;;252.30;;
46815;SDS011;32787;53.316;8.670;2024-02-15T08:14:16;471.92;;;246.07;;
46815;SDS011;32787;53.316;8.670;2024-02-15T08:16:42;476.60;;;259.70;;
46815;SDS011;32787;53.316;8.670;2024-02-15T08:19:07;477.63;;;250.77;;
46815;SDS011;32787;53.316;8.670;2024-02-15T08:21:33;473.73;;;242.70;;
46815;SDS011;32787;53.316;8.670;2024-02-15T08:24:04;474.45;;;248.02;;
46815;SDS011;32787;53.316;8.670;2024-02-15T08:26:33;475.45;;;247.77;;
46815;SDS011;32787;53.316;8.670;2024-02-15T08:29:03;471.73;;;246.90;;
46815;SDS011;32787;53.316;8.670;2024-02-15T08:31:29;477.27;;;247.82;;
46815;SDS011;32787;53.316;8.670;2024-02-15T08:33:58;480.60;;;246.32;;
46815;SDS011;32787;53.316;8.670;2024-02-15T08:36:25;474.00;;;247.52;;
46815;SDS011;32787;53.316;8.670;2024-02-15T08:38:51;479.83;;;248.43;;
46815;SDS011;32787;53.316;8.670;2024-02-15T08:41:17;476.30;;;247.13;;
46815;SDS011;32787;53.316;8.670;2024-02-15T08:43:43;479.25;;;247.90;;
46815;SDS011;32787;53.316;8.670;2024-02-15T08:46:11;476.20;;;251.10;;
46815;SDS011;32787;53.316;8.670;2024-02-15T08:48:37;474.05;;;250.65;;
46815;SDS011;32787;53.316;8.670;2024-02-15T08:51:03;478.80;;;249.73;;
46815;SDS011;32787;53.316;8.670;2024-02-15T08:53:30;467.83;;;244.20;;
46815;SDS011;32787;53.316;8.670;2024-02-15T08:55:57;480.15;;;252.63;;
46815;SDS011;32787;53.316;8.670;2024-02-15T08:58:22;471.67;;;257.77;;
46815;SDS011;32787;53.316;8.670;2024-02-15T09:00:48;476.65;;;258.70;;
46815;SDS011;32787;53.316;8.670;2024-02-15T09:03:14;473.58;;;255.98;;
46815;SDS011;32787;53.316;8.670;2024-02-15T09:05:40;473.67;;;256.55;;
46815;SDS011;32787;53.316;8.670;2024-02-15T09:08:06;469.83;;;255.27;;
46815;SDS011;32787;53.316;8.670;2024-02-15T09:10:32;483.52;;;259.45;;
46815;SDS011;32787;53.316;8.670;2024-02-15T09:12:57;476.55;;;261.55;;
46815;SDS011;32787;53.316;8.670;2024-02-15T09:15:23;476.15;;;263.95;;
46815;SDS011;32787;53.316;8.670;2024-02-15T09:17:49;475.85;;;262.20;;
46815;SDS011;32787;53.316;8.670;2024-02-15T09:20:16;474.52;;;258.15;;
46815;SDS011;32787;53.316;8.670;2024-02-15T09:22:49;472.98;;;258.95;;
46815;SDS011;32787;53.316;8.670;2024-02-15T09:25:16;470.23;;;256.77;;
46815;SDS011;32787;53.316;8.670;2024-02-15T09:27:42;474.10;;;265.52;;
46815;SDS011;32787;53.316;8.670;2024-02-15T09:30:08;471.92;;;267.27;;
46815;SDS011;32787;53.316;8.670;2024-02-15T09:32:35;474.70;;;267.75;;
46815;SDS011;32787;53.316;8.670;2024-02-15T09:35:01;476.10;;;270.27;;
46815;SDS011;32787;53.316;8.670;2024-02-15T09:37:28;477.33;;;263.58;;
46815;SDS011;32787;53.316;8.670;2024-02-15T09:39:55;479.63;;;266.85;;
46815;SDS011;32787;53.316;8.670;2024-02-15T09:42:21;474.15;;;265.27;;
46815;SDS011;32787;53.316;8.670;2024-02-15T09:44:46;474.45;;;259.95;;
46815;SDS011;32787;53.316;8.670;2024-02-15T09:47:12;475.50;;;261.00;;
46815;SDS011;32787;53.316;8.670;2024-02-15T09:49:40;478.38;;;252.27;;
46815;SDS011;32787;53.316;8.670;2024-02-15T09:52:06;483.17;;;257.88;;
46815;SDS011;32787;53.316;8.670;2024-02-15T09:54:42;476.50;;;259.95;;
46815;SDS011;32787;53.316;8.670;2024-02-15T09:57:09;472.48;;;254.15;;
46815;SDS011;32787;53.316;8.670;2024-02-15T09:59:38;472.75;;;259.00;;
46815;SDS011;32787;53.316;8.670;2024-02-15T10:02:05;472.58;;;259.27;;
46815;SDS011;32787;53.316;8.670;2024-02-15T10:04:41;471.13;;;255.43;;
46815;SDS011;32787;53.316;8.670;2024-02-15T10:07:08;473.92;;;256.88;;
46815;SDS011;32787;53.316;8.670;2024-02-15T10:09:34;475.10;;;258.38;;
46815;SDS011;32787;53.316;8.670;2024-02-15T10:12:02;480.30;;;256.33;;
46815;SDS011;32787;53.316;8.670;2024-02-15T10:14:31;480.20;;;256.13;;
46815;SDS011;32787;53.316;8.670;2024-02-15T10:17:00;480.98;;;255.18;;
46815;SDS011;32787;53.316;8.670;2024-02-15T10:19:34;475.42;;;250.15;;
46815;SDS011;32787;53.316;8.670;2024-02-15T10:22:07;480.05;;;258.23;;
46815;SDS011;32787;53.316;8.670;2024-02-15T10:24:34;479.20;;;257.17;;
46815;SDS011;32787;53.316;8.670;2024-02-15T10:27:02;474.80;;;258.38;;
46815;SDS011;32787;53.316;8.670;2024-02-15T10:29:35;473.77;;;252.60;;
46815;SDS011;32787;53.316;8.670;2024-02-15T10:32:02;477.42;;;251.88;;
46815;SDS011;32787;53.316;8.670;2024-02-15T10:34:31;474.08;;;248.80;;
46815;SDS011;32787;53.316;8.670;2024-02-15T10:37:11;475.98;;;255.07;;
46815;SDS011;32787;53.316;8.670;2024-02-15T10:39:37;472.15;;;250.65;;
46815;SDS011;32787;53.316;8.670;2024-02-15T10:42:03;472.38;;;249.63;;
46815;SDS011;32787;53.316;8.670;2024-02-15T10:44:32;472.15;;;252.52;;
46815;SDS011;32787;53.316;8.670;2024-02-15T10:47:02;470.85;;;249.02;;
46815;SDS011;32787;53.316;8.670;2024-02-15T10:49:32;474.75;;;247.43;;
46815;SDS011;32787;53.316;8.670;2024-02-15T10:51:59;472.95;;;244.63;;
46815;SDS011;32787;53.316;8.670;2024-02-15T10:54:52;469.15;;;239.45;;
46815;SDS011;32787;53.316;8.670;2024-02-15T10:57:22;466.00;;;245.48;;
46815;SDS011;32787;53.316;8.670;2024-02-15T10:59:54;469.20;;;251.13;;
46815;SDS011;32787;53.316;8.670;2024-02-15T11:04:48;473.02;;;249.02;;
46815;SDS011;32787;53.316;8.670;2024-02-15T11:07:19;471.70;;;247.15;;
46815;SDS011;32787;53.316;8.670;2024-02-15T11:09:46;469.63;;;250.70;;
46815;SDS011;32787;53.316;8.670;2024-02-15T11:12:12;471.95;;;250.88;;
46815;SDS011;32787;53.316;8.670;2024-02-15T11:14:39;470.77;;;257.83;;
46815;SDS011;32787;53.316;8.670;2024-02-15T11:17:10;471.33;;;248.18;;
46815;SDS011;32787;53.316;8.670;2024-02-15T11:22:21;466.35;;;239.98;;
46815;SDS011;32787;53.316;8.670;2024-02-15T11:24:51;474.00;;;246.93;;
46815;SDS011;32787;53.316;8.670;2024-02-15T11:27:24;477.58;;;248.10;;
46815;SDS011;32787;53.316;8.670;2024-02-15T11:29:58;471.63;;;238.40;;
46815;SDS011;32787;53.316;8.670;2024-02-15T11:35:22;469.65;;;239.55;;
46815;SDS011;32787;53.316;8.670;2024-02-15T11:42:39;469.70;;;244.40;;
46815;SDS011;32787;53.316;8.670;2024-02-15T11:45:05;476.70;;;244.15;;
46815;SDS011;32787;53.316;8.670;2024-02-15T11:47:32;473.13;;;249.88;;
46815;SDS011;32787;53.316;8.670;2024-02-15T11:50:13;471.55;;;242.00;;
46815;SDS011;32787;53.316;8.670;2024-02-15T11:52:40;470.38;;;244.82;;
46815;SDS011;32787;53.316;8.670;2024-02-15T11:55:08;470.50;;;248.73;;
46815;SDS011;32787;53.316;8.670;2024-02-15T11:57:38;476.90;;;249.52;;
46815;SDS011;32787;53.316;8.670;2024-02-15T12:00:22;475.70;;;244.90;;
46815;SDS011;32787;53.316;8.670;2024-02-15T12:03:07;468.77;;;243.10;;
46815;SDS011;32787;53.316;8.670;2024-02-15T12:05:53;474.42;;;239.20;;
46815;SDS011;32787;53.316;8.670;2024-02-15T12:08:38;477.77;;;243.90;;
46815;SDS011;32787;53.316;8.670;2024-02-15T12:11:22;473.50;;;247.38;;
46815;SDS011;32787;53.316;8.670;2024-02-15T12:14:06;472.60;;;248.90;;
46815;SDS011;32787;53.316;8.670;2024-02-15T12:17:02;475.05;;;251.52;;
46815;SDS011;32787;53.316;8.670;2024-02-15T12:19:51;477.27;;;250.63;;
46815;SDS011;32787;53.316;8.670;2024-02-15T12:22:22;479.42;;;252.27;;
46815;SDS011;32787;53.316;8.670;2024-02-15T12:25:00;470.27;;;251.43;;
46815;SDS011;32787;53.316;8.670;2024-02-15T12:27:31;477.00;;;255.32;;
46815;SDS011;32787;53.316;8.670;2024-02-15T12:29:57;472.40;;;253.70;;
46815;SDS011;32787;53.316;8.670;2024-02-15T12:32:27;477.15;;;258.80;;
46815;SDS011;32787;53.316;8.670;2024-02-15T12:34:53;479.05;;;258.77;;
46815;SDS011;32787;53.316;8.670;2024-02-15T12:37:35;476.58;;;261.05;;
46815;SDS011;32787;53.316;8.670;2024-02-15T12:40:10;476.83;;;263.98;;
46815;SDS011;32787;53.316;8.670;2024-02-15T12:42:41;470.85;;;254.98;;
46815;SDS011;32787;53.316;8.670;2024-02-15T12:45:18;474.85;;;259.27;;
46815;SDS011;32787;53.316;8.670;2024-02-15T12:47:50;473.30;;;263.20;;
46815;SDS011;32787;53.316;8.670;2024-02-15T12:50:17;473.10;;;258.83;;
46815;SDS011;32787;53.316;8.670;2024-02-15T12:52:45;472.52;;;260.17;;
46815;SDS011;32787;53.316;8.670;2024-02-15T12:55:22;471.85;;;261.23;;
46815;SDS011;32787;53.316;8.670;2024-02-15T12:57:52;469.15;;;255.77;;
46815;SDS011;32787;53.316;8.670;2024-02-15T13:00:21;469.70;;;260.50;;
46815;SDS011;32787;53.316;8.670;2024-02-15T13:02:53;470.92;;;257.92;;
46815;SDS011;32787;53.316;8.670;2024-02-15T13:05:21;470.02;;;260.70;;
46815;SDS011;32787;53.316;8.670;2024-02-15T13:07:48;467.98;;;262.55;;
46815;SDS011;32787;53.316;8.670;2024-02-15T13:10:15;470.00;;;253.27;;
46815;SDS011;32787;53.316;8.670;2024-02-15T13:12:44;469.35;;;259.63;;
46815;SDS011;32787;53.316;8.670;2024-02-15T13:15:12;469.00;;;249.70;;
46815;SDS011;32787;53.316;8.670;2024-02-15T13:17:48;471.55;;;255.50;;
46815;SDS011;32787;53.316;8.670;2024-02-15T13:20:16;471.27;;;251.32;;
46815;SDS011;32787;53.316;8.670;2024-02-15T13:22:45;468.33;;;253.40;;
46815;SDS011;32787;53.316;8.670;2024-02-15T13:25:14;473.20;;;251.05;;
46815;SDS011;32787;53.316;8.670;2024-02-15T13:27:46;472.98;;;251.00;;
46815;SDS011;32787;53.316;8.670;2024-02-15T13:30:12;468.33;;;249.30;;
46815;SDS011;32787;53.316;8.670;2024-02-15T13:32:38;470.52;;;246.23;;
46815;SDS011;32787;53.316;8.670;2024-02-15T13:35:06;465.48;;;245.60;;
46815;SDS011;32787;53.316;8.670;2024-02-15T13:37:40;472.50;;;246.13;;
46815;SDS011;32787;53.316;8.670;2024-02-15T13:40:12;473.52;;;255.90;;
46815;SDS011;32787;53.316;8.670;2024-02-15T13:42:46;476.95;;;255.20;;
46815;SDS011;32787;53.316;8.670;2024-02-15T13:45:24;471.73;;;254.55;;
46815;SDS011;32787;53.316;8.670;2024-02-15T13:47:59;471.45;;;252.50;;
46815;SDS011;32787;53.316;8.670;2024-02-15T13:50:30;467.67;;;257.30;;
46815;SDS011;32787;53.316;8.670;2024-02-15T13:52:56;466.95;;;254.98;;
46815;SDS011;32787;53.316;8.670;2024-02-15T13:55:25;467.90;;;254.85;;
46815;SDS011;32787;53.316;8.670;2024-02-15T13:57:51;467.67;;;257.48;;
46815;SDS011;32787;53.316;8.670;2024-02-15T14:00:18;466.27;;;264.10;;
46815;SDS011;32787;53.316;8.670;2024-02-15T14:02:47;472.02;;;269.35;;
46815;SDS011;32787;53.316;8.670;2024-02-15T14:05:18;474.83;;;269.55;;
46815;SDS011;32787;53.316;8.670;2024-02-15T14:07:45;473.52;;;272.60;;
46815;SDS011;32787;53.316;8.670;2024-02-15T14:10:20;469.05;;;269.95;;
46815;SDS011;32787;53.316;8.670;2024-02-15T14:12:47;469.95;;;265.38;;
46815;SDS011;32787;53.316;8.670;2024-02-15T14:15:16;470.00;;;270.45;;
46815;SDS011;32787;53.316;8.670;2024-02-15T14:17:42;476.15;;;271.70;;